Aérodrome :
LOGIN :

S'inscrire | Disclaimer

   EN    FR    IT 

 










Légende :    VFR   VFR Marginal   IFR   IFR Intensif   IFR Très Intensif
Visi : 
Plafond : 
>= 8 km
>= 3000ft
5 à 8 km
1000 à 3000 ft
1500m à 5 km
500 à 1000 ft
800 à 1500m
200 à 500 ft
< 800m
< 200 ft
Symboles :   Orages  Brouillard  Fortes neiges  Fortes précipitations  Vent > 20 kt
SIGMETs :   Divers  Orages  Givrage  Turbulence  Onde Orograph.  Cendres Volcan.






- Altitude de l'aérodrome : 433 ft


LFOC - Chateaudun

DERNIER METAR :
  • 110530Z AUTO 23005KT 7000 -RA ////// 06/06 Q1012

METARs EXPIRÉS :
  • 110500Z AUTO 21008KT 7000 RA ////// 06/06 Q1012
  • 110430Z AUTO 20011KT 6000 -RA ////// 06/06 Q1012
  • 110400Z AUTO 21010KT 5000 -RA BR ////// 06/06 Q1012
  • 110330Z AUTO 19012KT 9999 -DZ ////// 06/06 Q1012
  • 110300Z AUTO 20015KT 7000 ////// 06/06 Q1013

TAF AMD TAF LFOC
Valide du 11 à 06h jusqu'au 12 à 03h UTC


110600Z 1106/1203 25005KT 7000 BKN005
TEMPO 1106/1109 4000 -RADZ
BECMG 1109/1111 BKN014
TEMPO 1115/1121 25015G28KT 4000 -SHRA BKN015TCU



MET'MAP, la Météo Aéronautique d'un coup d'oeil ! - Copyright ORBIFLY Décembre 2007 - Disclaimer

ORBIFLY MET'MAP TEAM :

Programmation & Développement : Alexandra Zaïnal
Sur une idée originale de : Baudouin d'Aumeries
Assistance à la programmation : Marc-Olivier Méhu
Soutien technique & logistique : Manuel Goepfert

Contact : metmap@orbifly.com




SOURCES & CREDITS :

   NOAA